Crater Lake National Park, OR

01:52 AM PDT del 29 Agosto 2016 (GMT -0700)
Chiloquin Williamson River | | Change Station
Avvisi attivi: Fire Weather Warning

Alt. 4173 ft 42.58 °N, 121.86 °W | Updated 15 seconds ago

Clear
Sereno
46.6 °F
Sembra 45 °F
N
3.6
Vento Variabile Vento da NE
Gusts 4.9 mph

Oggi
Massima -- | Minima -- °F
--% Possibilità di precip.
Ieri
Massima -- | Minima -- °F
Precip. -- in
Pressione 30.06 in
Visibilità 10.0 miglia
Nuvole Sereno
Raffreddamento del vento 45 °F
Punto di rugiada 38 °F
Umidità 73%
Piovosità 0.00 in
Spessore del manto nevoso Non disponibile.
6:29 AM 7:45 PM
Luna calante, 10% visible
METAR KLMT 290753Z AUTO 16004KT 10SM CLR 12/06 A3018 RMK AO2 SLP178 T01220056 403060067
Pressione 30.06 in
Visibilità 10.0 miglia
Nuvole Sereno
Raffreddamento del vento 45 °F
Punto di rugiada 38 °F
Umidità 73%
Piovosità 0.00 in
Spessore del manto nevoso Non disponibile.
6:29 AM 7:45 PM
Luna calante, 10% visible
METAR KLMT 290753Z AUTO 16004KT 10SM CLR 12/06 A3018 RMK AO2 SLP178 T01220056 403060067

10-Day Weather Forecast

Almanac

Astronomia

Aug. 29, 2016 Alba Tramonto
Ora attuale
Crepuscolo civile
Crepuscolo nautico
Crepuscolo astronomico
Luna
Estensione della luce visibile
Lunghezza del giorno
Tomorrow will be .
, % of the Moon is Illuminated

Gli estremi di oggi

State Highs State Lows

Community

WunderPhotos

Upload Photos

1,935,800 foto caricate!

WunderBlog® & News

Nearby

Qualità dell'aria

  Qualità dell'aria Indice AQ Inquinante
Not available.

Profondità neve

Stazione Profondità Altitudine

Attività sismica

Città  Distanza Mag. Data & Ora
Minimo Magnitudo Mostrato è 2.5.

Temperature delle acque costiere

Località Temperatura

Stations

Stazioni meteo nelle vicinanze

Ubicazione della stazione Temp. Raffreddamento del vento Punto di rugiada Umidità Vento Precip. Alt. Aggiornato Tipo
                   

Watches & Warnings

Fire Weather Warning
Issued: 14:50 PDT Aug. 28, 2016 – National Weather Service

... Red flag warning in effect from noon to 9 PM PDT Monday for
   combination of strong winds and low relative humidities for
   fire weather zones 285... 624 and 625...

The National Weather Service in Medford has issued a red flag
warning... which is in effect from noon to 9 PM PDT Monday. The
Fire Weather Watch is no longer in effect.

* Affected area: in northern CA fire zone... .285. In south
central or fire zones... 624... 625.

* Counties affected: in northern CA... Modoc. In south central
or... Klamath... lake.

* Wind: southwest 10 to 15 mph with gusts up to 25 mph.

* Humidity: as low as 5-10 percent.

Precautionary/preparedness actions...

Strong winds and low relative humidities will cause fires to
spread very rapidly.



Visit US at www.Weather.Gov/Medford